Weather reports worldwide

Advertisment
Katesbridge, United Kingdom (99014): temperature & dewpoint: 17.02.2019 14:00:00 - 23.02.2019 14:00:00 (GMT)Katesbridge, United Kingdom (99014): wind speed & gusts: 17.02.2019 14:00:00 - 23.02.2019 14:00:00 (GMT)Katesbridge, United Kingdom (99014): wind direction: 17.02.2019 14:00:00 - 23.02.2019 14:00:00 (GMT)Katesbridge, United Kingdom (99014): sunshine duration: 17.02.2019 14:00:00 - 23.02.2019 14:00:00 (GMT)Katesbridge, United Kingdom (99014): precipitation: 17.02.2019 14:00:00 - 23.02.2019 14:00:00 (GMT)
Date & Time tt [°C] td [°C] ff [km/h] ff [kn] fx [km/h] fx [kn] dd sd [min] rr [mm]
23.02.2019 14:00:00 - - - - - - - - -
23.02.2019 13:00:00 10,4 9,4 11 6 - - S 0 0,2
23.02.2019 12:00:00 10,4 8,2 15 8 - - SSW 0 0,0
23.02.2019 11:00:00 10,6 7,8 16 9 - - S 0 0,0
23.02.2019 10:00:00 10,6 7,3 16 9 - - S 0 0,0
23.02.2019 09:00:00 10,4 7,0 22 12 - - SSE 0 0,0
23.02.2019 08:00:00 10,2 6,7 21 11 - - SSE 0 0,0
23.02.2019 07:00:00 9,6 6,4 21 11 - - SE 0 0,0
23.02.2019 06:00:00 9,7 6,5 24 13 - - SSE 0 0,0
23.02.2019 05:00:00 9,4 6,6 21 11 - - SSE 0 0,0
23.02.2019 04:00:00 9,4 6,8 21 11 - - SSE 0 0,0
23.02.2019 03:00:00 9,7 6,4 22 12 - - SSE 0 0,0
23.02.2019 02:00:00 9,5 6,7 24 13 - - SSE 0 0,0
23.02.2019 01:00:00 9,5 6,4 24 13 - - SSE 0 0,0
23.02.2019 00:00:00 9,8 6,4 24 13 - - S - 0,0
22.02.2019 23:00:00 10,3 6,6 24 13 46 25 S 0 0,0
22.02.2019 22:00:00 10,4 6,6 26 14 50 27 S 0 0,0
22.02.2019 21:00:00 10,6 6,5 29 16 48 26 S 0 0,0
22.02.2019 20:00:00 10,3 6,5 24 13 - - S 0 0,0
22.02.2019 19:00:00 10,5 6,4 26 14 - - S 0 0,0
22.02.2019 18:00:00 10,3 6,3 26 14 - - SSE 0 0,0
22.02.2019 17:00:00 10,4 6,8 16 9 - - SSE 0 0,0
22.02.2019 16:00:00 10,9 6,8 21 11 - - SSE 0 0,0
22.02.2019 15:00:00 11,4 7,3 22 12 - - SSE 12 0,0
22.02.2019 14:00:00 12,2 7,8 24 13 50 27 S 24 0,0
22.02.2019 13:00:00 11,1 7,4 22 12 - - S 0 0,0
22.02.2019 12:00:00 11,0 7,4 22 12 48 26 S 0 0,0
22.02.2019 11:00:00 11,2 7,7 24 13 - - S 6 0,0
22.02.2019 10:00:00 10,6 7,2 26 14 - - S 0 0,0
22.02.2019 09:00:00 10,3 7,0 18 10 - - SSE 0 0,0
22.02.2019 08:00:00 10,3 6,6 21 11 - - S 0 0,0
22.02.2019 07:00:00 10,7 6,6 16 9 - - S 0 0,0
22.02.2019 06:00:00 10,4 6,6 24 13 46 25 S 0 0,0
22.02.2019 05:00:00 10,6 6,5 26 14 - - S 0 0,0
22.02.2019 04:00:00 10,5 7,2 22 12 - - S 0 0,0
22.02.2019 03:00:00 9,9 7,4 21 11 - - SSE 0 0,0
22.02.2019 02:00:00 9,3 7,7 22 12 46 25 SSE 0 0,0
22.02.2019 01:00:00 9,6 7,9 34 18 55 30 S 0 0,0
22.02.2019 00:00:00 9,3 8,1 31 17 50 27 S - 0,0
21.02.2019 23:00:00 9,3 8,0 21 11 - - S 0 0,0
21.02.2019 22:00:00 9,4 8,0 18 10 - - S 0 0,0
21.02.2019 21:00:00 9,6 7,7 13 7 - - S 0 0,0
21.02.2019 20:00:00 9,3 7,4 16 9 - - S 0 0,0
21.02.2019 19:00:00 9,0 7,4 13 7 - - S 0 0,0
21.02.2019 18:00:00 9,1 7,4 13 7 - - S 0 0,0
21.02.2019 17:00:00 10,1 7,7 16 9 - - S 54 0,0
21.02.2019 16:00:00 12,0 7,7 11 6 - - S 60 0,0
21.02.2019 15:00:00 12,0 8,6 21 11 - - SSW 60 0,0
21.02.2019 14:00:00 12,4 8,9 18 10 - - S 6 0,0
21.02.2019 13:00:00 12,2 8,8 21 11 - - S 0 0,0
21.02.2019 12:00:00 12,0 9,2 22 12 - - SSW 0 0,0
21.02.2019 11:00:00 11,6 9,3 21 11 - - SSW 0 0,0
21.02.2019 10:00:00 11,6 9,1 21 11 - - SSW 30 0,0
21.02.2019 09:00:00 11,2 8,9 29 16 - - SW 0 0,0
21.02.2019 08:00:00 11,2 8,9 15 8 - - S 0 0,0
21.02.2019 07:00:00 11,3 9,5 15 8 - - S 0 0,0
21.02.2019 06:00:00 11,8 10,0 15 8 - - S 0 0,0
21.02.2019 05:00:00 11,7 9,9 15 8 - - SSW 0 0,0
21.02.2019 04:00:00 11,7 10,0 18 10 - - SSW 0 0,0
21.02.2019 03:00:00 11,8 10,0 11 6 - - SSW 0 0,0
21.02.2019 02:00:00 11,7 10,1 13 7 - - SSW 0 0,0
21.02.2019 01:00:00 11,6 9,9 16 9 - - SSW 0 0,0
21.02.2019 00:00:00 11,5 9,8 18 10 - - SSW - 0,0
20.02.2019 23:00:00 11,3 9,5 18 10 - - SSW 0 0,0
20.02.2019 22:00:00 10,9 9,3 13 7 - - S 0 0,0
20.02.2019 21:00:00 11,1 9,2 13 7 - - SSW 0 0,0
20.02.2019 20:00:00 12,0 9,3 18 10 - - SSW 0 0,0
20.02.2019 19:00:00 12,1 9,7 21 11 - - SSW 0 0,0
20.02.2019 18:00:00 12,0 9,5 15 8 - - SW 6 0,0
20.02.2019 17:00:00 12,8 9,6 16 9 - - SSW 12 0,0
20.02.2019 16:00:00 12,8 9,7 16 9 - - SW 0 0,0
20.02.2019 15:00:00 - - - - - - - - -
20.02.2019 14:00:00 - - - - - - - - -
20.02.2019 13:00:00 - - - - - - - - -
20.02.2019 12:00:00 11,4 9,0 26 14 - - SSW 0 0,0
20.02.2019 11:00:00 10,8 8,8 18 10 - - SSW 0 0,0
20.02.2019 10:00:00 10,0 8,4 21 11 - - S 0 0,0
20.02.2019 09:00:00 10,2 8,6 21 11 - - SSW 0 0,0
20.02.2019 08:00:00 10,2 8,3 22 12 - - SSW 0 0,0
20.02.2019 07:00:00 10,1 8,1 22 12 - - SSW 0 0,0
20.02.2019 06:00:00 10,1 7,6 28 15 - - SSW 0 0,0
20.02.2019 05:00:00 10,2 7,4 28 15 48 26 SSW 0 0,0
20.02.2019 04:00:00 10,1 8,4 28 15 55 30 SW 0 0,0
20.02.2019 03:00:00 10,2 8,4 31 17 48 26 SW 0 0,0
20.02.2019 02:00:00 10,0 8,5 26 14 - - SW 0 0,0
20.02.2019 01:00:00 9,7 8,4 24 13 - - SW 0 0,0
20.02.2019 00:00:00 9,6 8,2 24 13 - - SW - 0,0
19.02.2019 23:00:00 9,3 8,1 21 11 - - SW 0 0,0
19.02.2019 22:00:00 9,1 7,9 22 12 - - SSW 0 0,8
19.02.2019 21:00:00 8,7 7,7 18 10 - - SSW 0 1,6
19.02.2019 20:00:00 8,2 7,3 21 11 - - SSW 0 1,4
19.02.2019 19:00:00 8,1 7,0 22 12 - - SSW 0 0,6
19.02.2019 18:00:00 7,7 6,7 18 10 - - S 0 0,4
19.02.2019 17:00:00 7,6 6,3 21 11 - - S 0 0,4
19.02.2019 16:00:00 7,6 5,9 21 11 - - S 0 0,2
19.02.2019 15:00:00 7,5 5,8 13 7 - - S 0 0,4
19.02.2019 14:00:00 7,8 5,4 15 8 - - S 0 0,0
19.02.2019 13:00:00 8,1 4,5 18 10 - - SSW 0 0,0
19.02.2019 12:00:00 7,7 3,9 16 9 - - SSW 0 0,0
19.02.2019 11:00:00 7,1 3,8 15 8 - - SW 0 0,0
19.02.2019 10:00:00 5,9 3,1 13 7 - - SW 0 0,0
19.02.2019 09:00:00 4,4 3,0 4 2 - - S 0 0,0
19.02.2019 08:00:00 4,1 2,7 9 5 - - SW 0 0,0
19.02.2019 07:00:00 4,1 3,0 11 6 - - SW 0 0,0
19.02.2019 06:00:00 4,2 3,0 9 5 - - SW 0 0,0
19.02.2019 05:00:00 5,1 3,7 9 5 - - SW 0 0,0
19.02.2019 04:00:00 6,1 4,6 9 5 - - WSW 0 0,0
19.02.2019 03:00:00 6,2 4,9 9 5 - - WSW 0 0,0
19.02.2019 02:00:00 6,2 5,0 9 5 - - WSW 0 0,0
19.02.2019 01:00:00 5,8 4,6 11 6 - - WSW 0 0,0
19.02.2019 00:00:00 6,1 4,8 9 5 - - W - 0,0
18.02.2019 23:00:00 6,6 5,1 13 7 - - W 0 0,0
18.02.2019 22:00:00 7,1 5,2 15 8 - - W 0 0,0
18.02.2019 21:00:00 7,0 5,4 15 8 - - W 0 0,0
18.02.2019 20:00:00 6,8 5,1 16 9 - - W 0 0,0
18.02.2019 19:00:00 6,6 4,9 13 7 - - W 0 0,0
18.02.2019 18:00:00 7,0 4,8 11 6 - - W 0 0,2
18.02.2019 17:00:00 7,8 5,7 16 9 - - W 6 0,2
18.02.2019 16:00:00 7,9 5,5 18 10 - - W 6 0,2
18.02.2019 15:00:00 9,6 4,9 24 13 46 25 WSW 42 0,0
18.02.2019 14:00:00 8,7 4,6 21 11 - - WSW 12 0,0
18.02.2019 13:00:00 8,5 4,7 21 11 - - WSW 0 0,0
18.02.2019 12:00:00 8,2 4,7 21 11 - - WSW 6 0,0
18.02.2019 11:00:00 6,2 4,0 18 10 - - SW 0 0,0
18.02.2019 10:00:00 6,1 3,3 24 13 - - SW 0 0,0
18.02.2019 09:00:00 5,7 2,8 28 15 - - SW 6 0,0
18.02.2019 08:00:00 5,4 2,4 24 13 - - SW 0 0,0
18.02.2019 07:00:00 5,4 2,6 28 15 - - SW 0 0,0
18.02.2019 06:00:00 5,4 2,9 22 12 - - SW 0 0,0
18.02.2019 05:00:00 5,8 3,2 22 12 - - SW 0 0,0
18.02.2019 04:00:00 6,2 3,6 22 12 - - SW 0 0,0
18.02.2019 03:00:00 6,3 3,6 18 10 - - WSW 0 0,0
18.02.2019 02:00:00 7,6 4,0 22 12 - - WSW 0 0,0
18.02.2019 01:00:00 7,5 4,0 22 12 - - SW 0 0,0
18.02.2019 00:00:00 7,4 3,9 26 14 48 26 SW - 0,0
17.02.2019 23:00:00 8,4 4,2 31 17 52 28 SSW 0 0,0
17.02.2019 22:00:00 8,3 4,1 28 15 52 28 SSW 0 0,0
17.02.2019 21:00:00 8,3 4,5 28 15 - - SSW 0 0,0
17.02.2019 20:00:00 8,5 5,3 22 12 - - SSW 0 0,0
17.02.2019 19:00:00 8,3 5,7 18 10 - - S 0 0,0
17.02.2019 18:00:00 8,7 5,2 24 13 48 26 S 0 0,0
17.02.2019 17:00:00 9,6 4,2 24 13 - - SSW 12 0,0
17.02.2019 16:00:00 10,5 3,7 24 13 - - SSW 60 0,0
17.02.2019 15:00:00 10,9 3,1 26 14 52 28 SW 48 0,0
17.02.2019 14:00:00 11,4 4,7 26 14 48 26 SW 54 0,0

tt = temperature
td = dewpoint
ff = wind speed
fx = gusts
dd = wind direction
sd = sunshine duration
rr = precipitation

Next stations